»·PEaware :: N973SE KSBP-L88

N973SE :: KSBP-L88

FLIGHT INFORMATION

Flight Status: Arrived
Operator: Privately registered:
United States
More flights under this callsign
Pilot: Stig E. (4778)
Aircraft: Unknown
(DA62)
More flights by this aircraft type
Origin: KSBP San Luis Co Regl
United States
Destination: L88 New Cuyama
United States
More flights between these airports :: More routes between these airports
Route:
File this flight plan on PilotEdge
Remarks:
Altitude:
(Current/Filed)
7,500ft
Speed:
(Current/Filed)
150kts
Departed: 04-Apr-18 08:16 AM
Arrived: 04-Apr-18 08:44 AM
Distance/Time
Traveled:
50nm/0:28
Distance/Time
To Go:
Arrived

Flight Plot

Page will automatically refresh every two minutes.

Flight plan parsing failed; only flown route is shown


Map Options




Map Legend


Flown Route
Filed Route
Departure Airport
Arrival Airport
Navaid (VOR, NDB)
Fix

Horizontal Profiles

Position Reports

Time Latitude Longitude Heading Altitude Ground
Speed
04-Apr-18 07:50 35.238935 -120.639407 180 192ft 0kts
04-Apr-18 07:51 35.238935 -120.639407 180 192ft 0kts
04-Apr-18 07:52 35.238935 -120.639407 180 192ft 0kts
04-Apr-18 07:53 35.238935 -120.639407 180 192ft 0kts
04-Apr-18 07:54 35.238935 -120.639407 180 192ft 0kts
04-Apr-18 07:55 35.238935 -120.639407 180 192ft 0kts
04-Apr-18 07:56 35.238935 -120.639407 180 192ft 0kts
04-Apr-18 07:57 35.238935 -120.639407 180 192ft 0kts
04-Apr-18 07:58 35.238935 -120.639407 180 192ft 0kts
04-Apr-18 07:59 35.238935 -120.639407 180 192ft 0kts
04-Apr-18 08:00 35.238935 -120.639407 180 192ft 0kts
04-Apr-18 08:01 35.238935 -120.639407 180 192ft 0kts
04-Apr-18 08:02 35.238935 -120.639407 180 192ft 0kts
04-Apr-18 08:03 35.238935 -120.639407 180 192ft 0kts
04-Apr-18 08:04 35.238935 -120.639407 180 192ft 0kts
04-Apr-18 08:05 35.238935 -120.639407 180 192ft 0kts
04-Apr-18 08:06 35.238935 -120.639407 180 192ft 0kts
04-Apr-18 08:07 35.238935 -120.639407 180 192ft 0kts
04-Apr-18 08:08 35.238935 -120.639407 180 192ft 0kts
04-Apr-18 08:09 35.238935 -120.639407 180 192ft 0kts
04-Apr-18 08:10 35.238315 -120.638906 168 195ft 6kts
04-Apr-18 08:11 35.235823 -120.636160 123 206ft 15kts
04-Apr-18 08:12 35.233410 -120.632036 175 213ft 10kts
04-Apr-18 08:13 35.233257 -120.632157 229 213ft 0kts
04-Apr-18 08:14 35.233257 -120.632157 229 213ft 0kts
04-Apr-18 08:15 35.238943 -120.643627 305 381ft 89kts
04-Apr-18 08:16 35.247076 -120.670802 229 1321ft 94kts
04-Apr-18 08:17 35.229445 -120.663294 124 2390ft 96kts
04-Apr-18 08:18 35.211605 -120.631831 123 3830ft 98kts
04-Apr-18 08:19 35.195859 -120.604049 121 5043ft 101kts
04-Apr-18 08:20 35.181476 -120.574113 115 6246ft 104kts
04-Apr-18 08:21 35.171097 -120.541230 95 7420ft 107kts
04-Apr-18 08:22 35.167040 -120.502748 95 7506ft 156kts
04-Apr-18 08:23 35.160978 -120.447756 95 7498ft 167kts
04-Apr-18 08:24 35.154629 -120.391255 95 7495ft 167kts
04-Apr-18 08:25 35.148457 -120.336735 99 7492ft 168kts
04-Apr-18 08:26 35.141687 -120.280004 99 7491ft 169kts
04-Apr-18 08:27 35.135100 -120.223293 99 7490ft 170kts
04-Apr-18 08:28 35.128509 -120.166064 99 7490ft 170kts
04-Apr-18 08:29 35.121934 -120.109054 99 7490ft 169kts
04-Apr-18 08:30 35.115386 -120.052498 99 7199ft 167kts
04-Apr-18 08:31 35.100384 -120.001073 126 6469ft 161kts
04-Apr-18 08:32 35.073640 -119.957316 126 5681ft 163kts
04-Apr-18 08:33 35.045562 -119.914738 126 4961ft 160kts
04-Apr-18 08:34 35.017964 -119.872777 126 4259ft 158kts
04-Apr-18 08:35 34.996254 -119.839294 126 3676ft 158kts
04-Apr-18 08:36 34.971850 -119.800026 126 3577ft 134kts
04-Apr-18 08:37 34.950885 -119.764353 121 3580ft 126kts
04-Apr-18 08:38 34.932304 -119.728416 121 3580ft 125kts
04-Apr-18 08:39 34.913853 -119.692719 121 3580ft 123kts
04-Apr-18 08:40 34.902808 -119.660324 52 3332ft 108kts
04-Apr-18 08:41 34.929755 -119.659903 301 2693ft 104kts
04-Apr-18 08:42 34.939867 -119.685480 297 2178ft 60kts
04-Apr-18 08:43 34.942445 -119.690595 300 2156ft 0kts
04-Apr-18 08:44 34.942445 -119.690595 300 2156ft 0kts
04-Apr-18 08:45 34.942445 -119.690595 300 2156ft 0kts
04-Apr-18 08:46 34.942445 -119.690595 300 2156ft 0kts
04-Apr-18 08:47 34.942445 -119.690595 300 2156ft 0kts
04-Apr-18 08:48 34.942445 -119.690595 300 2156ft 0kts
04-Apr-18 08:49 34.942445 -119.690595 300 2156ft 0kts
04-Apr-18 08:50 34.942445 -119.690595 300 2156ft 0kts
04-Apr-18 08:51 34.942445 -119.690595 300 2156ft 0kts
04-Apr-18 08:52 34.942445 -119.690595 300 2156ft 0kts
04-Apr-18 08:53 34.942445 -119.690595 300 2156ft 0kts
04-Apr-18 08:54 34.942445 -119.690595 300 2156ft 0kts
04-Apr-18 08:55 34.942445 -119.690595 300 2156ft 0kts
04-Apr-18 08:56 34.942445 -119.690595 300 2156ft 0kts
04-Apr-18 08:57 34.942445 -119.690595 300 2156ft 0kts

Navigation Log

Ident Type
Flight plan parsing failed, navigation log unavailable